Time;durP1;ratioP1;P1;durP2;ratioP2;P2;SDS_P1;SDS_P2;PMS_P1;PMS_P2;Temp;Humidity;BMP_temperature;BMP_pressure;BME280_temperature;BME280_humidity;BME280_pressure;Samples;Min_cycle;Max_cycle;Signal;HPM_P1;HPM_P2
2022/10/03 00:01:15;;;;;;;4.55;2.80;;;;;;;;;;4997593;28;20836;-85
2022/10/03 00:03:52;;;;;;;5.57;2.85;;;;;;;;;;4996764;28;20440;-84
2022/10/03 00:06:29;;;;;;;5.00;3.13;;;;;;;;;;4996420;28;20025;-83
2022/10/03 00:09:17;;;;;;;4.72;3.17;;;;;;;;;;4980827;28;20033;-83
2022/10/03 00:12:03;;;;;;;5.00;2.88;;;;;;;;;;5013669;28;20083;-84
2022/10/03 00:14:43;;;;;;;4.97;3.17;;;;;;;;;;4996886;28;20483;-84
2022/10/03 00:17:29;;;;;;;4.18;2.75;;;;;;;;;;5013113;28;20034;-84
2022/10/03 00:19:58;;;;;;;5.00;2.80;;;;;;;;;;5031535;28;20057;-85
2022/10/03 00:22:27;;;;;;;4.65;2.90;;;;;;;;;;5000484;28;20387;-84
2022/10/03 00:25:14;;;;;;;5.05;3.17;;;;;;;;;;5016628;28;20052;-84
2022/10/03 00:28:04;;;;;;;4.75;2.75;;;;;;;;;;5000071;28;20068;-85
2022/10/03 00:30:42;;;;;;;3.88;2.95;;;;;;;;;;5016587;28;20043;-84
2022/10/03 00:33:35;;;;;;;5.75;2.65;;;;;;;;;;4985509;28;20025;-85
2022/10/03 00:36:19;;;;;;;5.32;2.80;;;;;;;;;;5000430;28;20121;-84
2022/10/03 00:39:01;;;;;;;4.15;2.45;;;;;;;;;;5016505;28;20510;-85
2022/10/03 00:41:43;;;;;;;4.27;2.80;;;;;;;;;;5000283;28;20059;-85
2022/10/03 00:44:15;;;;;;;3.30;2.40;;;;;;;;;;5005768;28;20374;-85
2022/10/03 00:47:05;;;;;;;4.03;2.72;;;;;;;;;;5016156;28;20033;-85
2022/10/03 00:49:50;;;;;;;4.70;2.95;;;;;;;;;;4996618;28;20046;-85
2022/10/03 00:52:24;;;;;;;5.10;3.10;;;;;;;;;;5013291;28;20030;-85
2022/10/03 00:55:08;;;;;;;4.07;2.90;;;;;;;;;;5004473;28;20094;-85
2022/10/03 00:57:59;;;;;;;5.00;2.90;;;;;;;;;;5020134;28;20078;-85
2022/10/03 01:00:29;;;;;;;4.20;2.67;;;;;;;;;;5003534;28;20021;-85
2022/10/03 01:03:13;;;;;;;4.10;2.80;;;;;;;;;;4986561;28;20125;-85
2022/10/03 01:06:01;;;;;;;4.30;2.88;;;;;;;;;;5035569;28;20487;-84
2022/10/03 01:08:57;;;;;;;5.43;2.95;;;;;;;;;;5019099;28;20024;-85
2022/10/03 01:11:37;;;;;;;4.15;2.63;;;;;;;;;;4989268;28;20037;-85
2022/10/03 01:14:18;;;;;;;3.85;2.08;;;;;;;;;;5036979;28;20040;-86
2022/10/03 01:16:45;;;;;;;4.95;2.70;;;;;;;;;;5035254;28;20037;-85
2022/10/03 01:19:36;;;;;;;4.38;2.72;;;;;;;;;;5002449;28;20040;-84
2022/10/03 01:22:14;;;;;;;3.70;2.65;;;;;;;;;;5002805;28;20033;-85
2022/10/03 01:24:45;;;;;;;4.65;2.95;;;;;;;;;;5011373;28;20096;-85
2022/10/03 01:27:13;;;;;;;4.03;2.60;;;;;;;;;;4999115;28;20038;-85
2022/10/03 01:32:37;;;;;;;5.20;2.63;;;;;;;;;;4987338;28;20064;-86
2022/10/03 01:35:24;;;;;;;4.63;3.00;;;;;;;;;;4999426;28;20037;-85
2022/10/03 01:38:03;;;;;;;4.63;2.75;;;;;;;;;;4999583;28;20036;-86
2022/10/03 01:40:42;;;;;;;3.90;2.63;;;;;;;;;;4999291;28;20026;-86
2022/10/03 01:43:14;;;;;;;3.85;2.28;;;;;;;;;;4983100;28;20112;-86
2022/10/03 01:45:53;;;;;;;3.28;2.60;;;;;;;;;;4999443;28;20107;-86
2022/10/03 01:48:42;;;;;;;3.67;2.67;;;;;;;;;;4982539;28;20040;-85
2022/10/03 01:51:15;;;;;;;4.32;2.35;;;;;;;;;;4999053;28;20025;-86
2022/10/03 01:53:59;;;;;;;4.00;2.60;;;;;;;;;;4998861;28;20065;-86
2022/10/03 01:56:41;;;;;;;4.03;2.22;;;;;;;;;;5016691;28;20041;-87
2022/10/03 01:59:27;;;;;;;3.92;2.42;;;;;;;;;;5002969;28;20029;-87
2022/10/03 02:02:16;;;;;;;4.53;2.78;;;;;;;;;;5002463;28;20041;-87
2022/10/03 02:04:47;;;;;;;4.13;2.45;;;;;;;;;;5018605;28;20029;-86
2022/10/03 02:07:58;;;;;;;3.53;2.40;;;;;;;;;;4986719;28;20031;-87
2022/10/03 02:11:03;;;;;;;4.70;2.60;;;;;;;;;;5014632;28;20029;-87
2022/10/03 02:13:52;;;;;;;3.45;2.60;;;;;;;;;;4939291;28;20039;-87
2022/10/03 02:16:44;;;;;;;3.05;2.15;;;;;;;;;;4939371;28;20031;-86
2022/10/03 02:19:11;;;;;;;3.38;2.25;;;;;;;;;;4990848;28;20125;-87
2022/10/03 02:21:52;;;;;;;4.30;2.83;;;;;;;;;;4998788;28;20059;-86
2022/10/03 02:24:27;;;;;;;3.20;2.30;;;;;;;;;;4982708;28;20041;-86
2022/10/03 02:27:06;;;;;;;4.28;2.55;;;;;;;;;;5015120;28;20577;-86
2022/10/03 02:29:49;;;;;;;4.05;2.60;;;;;;;;;;4998302;28;20037;-86
2022/10/03 02:32:51;;;;;;;5.25;2.90;;;;;;;;;;4999690;28;20546;-86
2022/10/03 02:35:32;;;;;;;4.18;2.72;;;;;;;;;;4984329;28;20395;-85
2022/10/03 02:38:06;;;;;;;3.78;2.28;;;;;;;;;;4998548;28;20044;-87
2022/10/03 02:41:03;;;;;;;3.90;2.25;;;;;;;;;;4997988;28;20037;-85
2022/10/03 02:43:42;;;;;;;3.35;2.40;;;;;;;;;;4975632;28;20056;-86
2022/10/03 02:46:19;;;;;;;3.22;2.45;;;;;;;;;;4998121;28;20483;-85
2022/10/03 02:49:14;;;;;;;3.60;2.10;;;;;;;;;;5014290;28;20057;-86
2022/10/03 02:52:07;;;;;;;3.42;2.33;;;;;;;;;;4977170;28;20551;-86
2022/10/03 02:54:52;;;;;;;3.63;2.50;;;;;;;;;;4982835;28;20048;-86
2022/10/03 02:57:30;;;;;;;3.70;2.28;;;;;;;;;;5017815;28;20033;-86
2022/10/03 03:00:21;;;;;;;3.80;2.35;;;;;;;;;;5018497;28;20518;-86
2022/10/03 03:03:19;;;;;;;3.80;2.40;;;;;;;;;;5017497;28;20040;-85
2022/10/03 03:06:18;;;;;;;3.58;2.30;;;;;;;;;;5017177;28;20033;-86
2022/10/03 03:09:09;;;;;;;4.13;2.45;;;;;;;;;;5030948;28;20045;-87
2022/10/03 03:12:05;;;;;;;3.63;2.30;;;;;;;;;;5017511;28;20025;-86
2022/10/03 03:14:41;;;;;;;4.13;2.45;;;;;;;;;;4994699;28;20052;-86
2022/10/03 03:17:25;;;;;;;3.55;2.67;;;;;;;;;;4978193;28;20519;-86
2022/10/03 03:20:03;;;;;;;3.85;2.53;;;;;;;;;;4994813;28;20507;-85
2022/10/03 03:23:02;;;;;;;3.65;2.53;;;;;;;;;;4979276;28;20029;-85
2022/10/03 03:25:42;;;;;;;3.60;2.55;;;;;;;;;;4994625;28;20076;-87
2022/10/03 03:28:39;;;;;;;3.30;2.05;;;;;;;;;;4978045;28;20121;-86
2022/10/03 03:31:09;;;;;;;2.95;1.98;;;;;;;;;;4978178;28;20034;-86
2022/10/03 03:34:06;;;;;;;2.85;2.05;;;;;;;;;;4977938;28;20053;-86
2022/10/03 03:36:47;;;;;;;3.47;2.13;;;;;;;;;;4980846;28;20042;-86
2022/10/03 03:39:37;;;;;;;3.33;2.03;;;;;;;;;;4994425;28;20026;-85
2022/10/03 03:42:22;;;;;;;2.50;1.75;;;;;;;;;;4994019;28;20025;-86
2022/10/03 03:45:01;;;;;;;4.20;2.35;;;;;;;;;;4993790;28;20038;-86
2022/10/03 03:47:27;;;;;;;3.28;1.92;;;;;;;;;;4980365;28;20068;-86
2022/10/03 03:50:20;;;;;;;3.70;2.40;;;;;;;;;;4997952;28;20506;-87
2022/10/03 03:53:04;;;;;;;3.22;2.17;;;;;;;;;;4997626;28;20048;-87
2022/10/03 03:55:37;;;;;;;3.60;2.33;;;;;;;;;;5000263;28;20037;-86
2022/10/03 03:58:25;;;;;;;3.70;2.25;;;;;;;;;;5017797;28;20446;-87
2022/10/03 04:01:31;;;;;;;3.17;2.20;;;;;;;;;;5000941;28;20381;-86
2022/10/03 04:04:13;;;;;;;3.30;1.98;;;;;;;;;;5017231;28;20017;-87
2022/10/03 04:06:48;;;;;;;4.00;2.00;;;;;;;;;;5017285;28;20040;-86
2022/10/03 04:09:39;;;;;;;3.38;2.22;;;;;;;;;;5002002;28;20360;-86
2022/10/03 04:12:35;;;;;;;3.17;2.10;;;;;;;;;;5000781;28;20144;-86
2022/10/03 04:15:32;;;;;;;3.33;1.90;;;;;;;;;;4986177;28;20053;-86
2022/10/03 04:20:48;;;;;;;3.20;2.40;;;;;;;;;;5017229;28;20032;-86
2022/10/03 04:23:30;;;;;;;4.13;2.40;;;;;;;;;;5000459;28;20112;-85
2022/10/03 04:26:16;;;;;;;3.63;2.08;;;;;;;;;;5000329;28;20037;-86
2022/10/03 04:29:04;;;;;;;4.00;2.60;;;;;;;;;;5017283;28;20104;-86
2022/10/03 04:31:56;;;;;;;3.95;2.28;;;;;;;;;;5000857;28;20037;-86
2022/10/03 04:34:32;;;;;;;2.85;1.90;;;;;;;;;;5000253;28;20376;-85
2022/10/03 04:37:23;;;;;;;3.65;2.25;;;;;;;;;;4985639;28;20045;-86
2022/10/03 04:40:30;;;;;;;3.00;2.10;;;;;;;;;;4985332;28;20033;-87
2022/10/03 04:43:04;;;;;;;3.13;2.10;;;;;;;;;;4957581;28;20038;-85
2022/10/03 04:46:01;;;;;;;2.42;1.85;;;;;;;;;;4980857;28;20560;-87
2022/10/03 04:48:38;;;;;;;3.63;2.10;;;;;;;;;;4989482;28;20462;-85
2022/10/03 04:51:16;;;;;;;2.90;1.92;;;;;;;;;;5001787;28;20168;-86
2022/10/03 04:54:21;;;;;;;3.92;2.65;;;;;;;;;;5016352;28;20040;-85
2022/10/03 04:56:51;;;;;;;3.65;1.92;;;;;;;;;;4992710;28;20073;-86
2022/10/03 04:59:28;;;;;;;3.50;2.33;;;;;;;;;;4997323;28;20038;-86
2022/10/03 05:02:03;;;;;;;3.17;2.10;;;;;;;;;;4996713;28;20424;-86
2022/10/03 05:04:32;;;;;;;3.92;2.53;;;;;;;;;;4980691;28;20064;-86
2022/10/03 05:07:21;;;;;;;3.72;2.00;;;;;;;;;;4980304;28;20042;-90
2022/10/03 05:10:12;;;;;;;3.63;2.22;;;;;;;;;;4981303;28;20044;-89
2022/10/03 05:12:49;;;;;;;3.53;2.38;;;;;;;;;;4966156;28;20076;-88
2022/10/03 05:15:54;;;;;;;3.33;2.13;;;;;;;;;;4981517;28;20053;-89
2022/10/03 05:18:36;;;;;;;3.35;2.17;;;;;;;;;;4996554;28;20037;-89
2022/10/03 05:21:13;;;;;;;3.53;2.17;;;;;;;;;;4982236;28;20034;-89
2022/10/03 05:24:02;;;;;;;3.60;2.20;;;;;;;;;;4980344;28;20084;-86
2022/10/03 05:26:48;;;;;;;3.67;2.00;;;;;;;;;;4998864;28;20034;-84
2022/10/03 05:29:33;;;;;;;2.63;1.92;;;;;;;;;;4979711;28;20065;-83
2022/10/03 05:32:14;;;;;;;3.30;2.08;;;;;;;;;;4998007;28;20388;-84
2022/10/03 05:34:50;;;;;;;5.75;2.40;;;;;;;;;;4979584;28;20037;-84
2022/10/03 05:37:30;;;;;;;8.55;4.38;;;;;;;;;;4979324;28;20140;-84
2022/10/03 05:40:05;;;;;;;10.20;3.00;;;;;;;;;;5010067;28;20041;-84
2022/10/03 05:42:54;;;;;;;11.70;4.43;;;;;;;;;;5016130;28;20034;-84
2022/10/03 05:45:43;;;;;;;5.70;3.30;;;;;;;;;;5010271;28;20033;-85
2022/10/03 05:48:31;;;;;;;6.43;2.88;;;;;;;;;;4993031;28;20033;-85
2022/10/03 05:51:32;;;;;;;8.95;4.07;;;;;;;;;;5002420;28;20029;-84
2022/10/03 05:54:26;;;;;;;7.45;3.10;;;;;;;;;;5001372;28;20136;-85
2022/10/03 05:57:16;;;;;;;10.80;3.03;;;;;;;;;;4974540;28;20049;-85
2022/10/03 05:59:50;;;;;;;7.25;3.00;;;;;;;;;;5022962;28;20056;-85
2022/10/03 06:02:50;;;;;;;8.57;3.60;;;;;;;;;;5018206;28;20029;-85
2022/10/03 06:05:26;;;;;;;6.95;3.83;;;;;;;;;;5016095;28;20037;-88
2022/10/03 06:08:18;;;;;;;9.82;3.50;;;;;;;;;;4980453;28;20034;-90
2022/10/03 06:11:20;;;;;;;;;;;;;;;;;;5006553;28;20048;-87
2022/10/03 06:14:16;;;;;;;8.13;3.70;;;;;;;;;;4921157;29;19914;-85
2022/10/03 06:16:57;;;;;;;9.70;3.97;;;;;;;;;;4978552;28;20033;-89
2022/10/03 06:19:32;;;;;;;15.60;3.17;;;;;;;;;;4979751;28;20038;-88
2022/10/03 06:22:28;;;;;;;11.18;3.70;;;;;;;;;;4979253;28;20021;-86
2022/10/03 06:25:03;;;;;;;17.55;4.13;;;;;;;;;;4979340;28;20040;-86
2022/10/03 06:28:07;;;;;;;13.93;4.55;;;;;;;;;;4978820;28;20025;-87
2022/10/03 06:30:54;;;;;;;9.82;3.20;;;;;;;;;;4978939;28;20029;-87
2022/10/03 06:33:57;;;;;;;9.80;3.67;;;;;;;;;;4979033;28;20038;-87
2022/10/03 06:36:25;;;;;;;;;;;;;;;;;;4979092;28;20042;-87
2022/10/03 06:39:13;;;;;;;9.18;2.80;;;;;;;;;;4994783;28;19964;-88
2022/10/03 06:42:05;;;;;;;9.68;3.03;;;;;;;;;;4979363;28;20018;-87
2022/10/03 06:45:08;;;;;;;8.27;3.45;;;;;;;;;;5012057;28;20044;-87
2022/10/03 06:48:10;;;;;;;13.18;3.80;;;;;;;;;;5013872;28;20032;-87
2022/10/03 06:51:03;;;;;;;11.13;3.25;;;;;;;;;;5011466;28;20105;-88
2022/10/03 06:53:49;;;;;;;9.88;3.22;;;;;;;;;;5014451;28;20463;-87
2022/10/03 06:56:37;;;;;;;7.88;3.45;;;;;;;;;;4998413;28;20120;-87
2022/10/03 06:59:21;;;;;;;8.32;3.17;;;;;;;;;;4997869;28;20036;-86
2022/10/03 07:01:58;;;;;;;6.78;2.70;;;;;;;;;;5014626;28;20044;-86
2022/10/03 07:04:53;;;;;;;6.55;3.17;;;;;;;;;;4997635;28;20112;-86
2022/10/03 07:07:46;;;;;;;8.98;2.97;;;;;;;;;;4999115;28;20526;-86
2022/10/03 07:10:43;;;;;;;6.15;2.38;;;;;;;;;;5014051;28;20029;-86
2022/10/03 07:13:30;;;;;;;5.38;2.25;;;;;;;;;;4983627;28;20498;-86
2022/10/03 07:16:08;;;;;;;8.95;3.15;;;;;;;;;;5014094;28;20034;-86
2022/10/03 07:18:41;;;;;;;8.90;2.80;;;;;;;;;;5014149;28;20044;-87
2022/10/03 07:21:31;;;;;;;6.25;2.50;;;;;;;;;;5013788;28;20029;-86
2022/10/03 07:24:51;;;;;;;5.82;2.83;;;;;;;;;;5013744;28;20387;-86
2022/10/03 07:27:29;;;;;;;5.43;2.42;;;;;;;;;;4970773;28;20187;-86
2022/10/03 07:30:15;;;;;;;6.38;2.33;;;;;;;;;;5016277;28;20080;-85
2022/10/03 07:33:05;;;;;;;5.25;2.75;;;;;;;;;;4986882;28;20388;-86
2022/10/03 07:41:40;;;;;;;5.03;2.40;;;;;;;;;;5017791;28;20060;-85
2022/10/03 07:44:53;;;;;;;8.63;2.88;;;;;;;;;;4983620;28;20488;-85
2022/10/03 07:47:53;;;;;;;8.77;2.78;;;;;;;;;;5002371;28;20073;-85
2022/10/03 07:50:23;;;;;;;8.43;2.67;;;;;;;;;;5017157;28;20036;-86
2022/10/03 07:53:10;;;;;;;4.75;2.35;;;;;;;;;;4985006;28;20030;-85
2022/10/03 07:55:45;;;;;;;5.13;2.10;;;;;;;;;;4998406;28;20035;-86
2022/10/03 07:58:43;;;;;;;7.57;3.03;;;;;;;;;;5021255;28;20526;-86
2022/10/03 08:01:34;;;;;;;4.13;2.28;;;;;;;;;;5004335;28;20033;-86
2022/10/03 08:04:20;;;;;;;7.53;2.83;;;;;;;;;;5004021;28;20127;-86
2022/10/03 08:06:51;;;;;;;5.65;2.50;;;;;;;;;;5037037;28;20041;-86
2022/10/03 08:09:39;;;;;;;6.05;2.35;;;;;;;;;;5020973;28;20029;-86
2022/10/03 08:12:34;;;;;;;4.82;2.22;;;;;;;;;;5004135;28;20036;-85
2022/10/03 08:15:20;;;;;;;5.20;2.05;;;;;;;;;;5003613;28;20087;-85
2022/10/03 08:18:11;;;;;;;5.85;2.38;;;;;;;;;;5022455;28;20083;-85
2022/10/03 08:20:47;;;;;;;8.00;2.45;;;;;;;;;;5036983;28;20076;-85
2022/10/03 08:23:28;;;;;;;7.65;2.65;;;;;;;;;;5036543;28;20367;-85
2022/10/03 08:26:26;;;;;;;4.95;2.10;;;;;;;;;;5036731;28;20090;-85
2022/10/03 08:29:28;;;;;;;5.18;2.33;;;;;;;;;;5020378;28;20029;-86
2022/10/03 08:31:57;;;;;;;;;;;;;;;;;;5037234;28;20035;-85
2022/10/03 08:34:56;;;;;;;5.13;2.33;;;;;;;;;;5036350;28;19966;-85
2022/10/03 08:37:47;;;;;;;6.72;2.50;;;;;;;;;;5036864;28;20037;-85
2022/10/03 08:40:44;;;;;;;4.75;2.20;;;;;;;;;;5019425;28;20112;-86
2022/10/03 08:43:12;;;;;;;4.05;2.00;;;;;;;;;;4994216;28;20488;-85
2022/10/03 08:46:22;;;;;;;5.35;2.25;;;;;;;;;;5013071;28;20120;-85
2022/10/03 08:49:05;;;;;;;5.75;1.85;;;;;;;;;;4930753;28;20043;-85
2022/10/03 08:51:46;;;;;;;5.28;2.15;;;;;;;;;;4999950;28;20034;-85
2022/10/03 08:54:31;;;;;;;3.13;1.90;;;;;;;;;;4999783;28;20036;-85
2022/10/03 08:57:06;;;;;;;4.43;1.70;;;;;;;;;;4996880;28;20081;-85
2022/10/03 09:00:06;;;;;;;4.00;2.13;;;;;;;;;;4996734;28;20034;-85
2022/10/03 09:02:53;;;;;;;4.20;1.90;;;;;;;;;;5012402;28;20029;-85
2022/10/03 09:05:43;;;;;;;3.08;1.92;;;;;;;;;;5014019;28;20040;-85
2022/10/03 09:08:42;;;;;;;5.30;1.92;;;;;;;;;;4996412;28;20065;-86
2022/10/03 09:11:31;;;;;;;5.28;2.70;;;;;;;;;;4996461;28;20070;-85
2022/10/03 09:14:16;;;;;;;3.45;1.70;;;;;;;;;;4996302;28;20168;-85
2022/10/03 09:17:00;;;;;;;4.60;1.65;;;;;;;;;;4995643;28;20065;-85
2022/10/03 09:19:34;;;;;;;4.90;2.22;;;;;;;;;;4996318;28;20029;-85
2022/10/03 09:22:30;;;;;;;5.93;2.22;;;;;;;;;;5012232;28;20034;-86
2022/10/03 09:25:23;;;;;;;4.38;2.00;;;;;;;;;;4996171;28;20022;-85
2022/10/03 09:28:25;;;;;;;4.78;2.22;;;;;;;;;;4996105;28;20030;-85
2022/10/03 09:30:54;;;;;;;4.25;1.90;;;;;;;;;;4995452;28;20404;-85
2022/10/03 09:33:48;;;;;;;8.35;2.25;;;;;;;;;;4995869;28;20042;-85
2022/10/03 09:36:50;;;;;;;4.43;1.90;;;;;;;;;;4996100;28;20069;-85
2022/10/03 09:39:30;;;;;;;4.95;2.30;;;;;;;;;;4995918;28;20039;-86
2022/10/03 09:42:17;;;;;;;4.70;2.00;;;;;;;;;;4996040;28;20065;-85
2022/10/03 09:44:55;;;;;;;3.55;2.03;;;;;;;;;;4995574;28;20041;-85
2022/10/03 09:47:39;;;;;;;3.90;1.80;;;;;;;;;;5013508;28;20034;-85
2022/10/03 09:50:35;;;;;;;4.35;2.28;;;;;;;;;;5032156;28;20073;-85
2022/10/03 09:53:35;;;;;;;3.38;1.23;;;;;;;;;;4984703;28;20035;-84
2022/10/03 09:56:24;;;;;;;5.10;2.08;;;;;;;;;;5047259;28;20040;-85
2022/10/03 09:59:24;;;;;;;3.00;1.58;;;;;;;;;;5034892;28;20036;-85
2022/10/03 10:02:29;;;;;;;5.72;2.10;;;;;;;;;;5002174;28;20047;-85
2022/10/03 10:05:19;;;;;;;4.57;1.88;;;;;;;;;;5037312;28;20025;-85
2022/10/03 10:07:56;;;;;;;4.93;1.80;;;;;;;;;;5001380;28;20040;-84
2022/10/03 10:10:43;;;;;;;4.00;1.75;;;;;;;;;;5034805;28;20094;-84
2022/10/03 10:13:15;;;;;;;3.10;1.63;;;;;;;;;;5001800;28;20033;-84
2022/10/03 10:15:55;;;;;;;2.60;1.53;;;;;;;;;;5034265;28;20029;-84
2022/10/03 10:18:46;;;;;;;3.50;1.60;;;;;;;;;;5034585;28;20037;-84
2022/10/03 10:21:31;;;;;;;3.58;1.42;;;;;;;;;;5018347;28;20032;-84
2022/10/03 10:24:13;;;;;;;3.28;1.55;;;;;;;;;;5017451;28;20033;-84
2022/10/03 10:26:41;;;;;;;4.00;1.77;;;;;;;;;;5001641;28;20111;-84
2022/10/03 10:29:16;;;;;;;3.83;1.70;;;;;;;;;;5017590;28;20033;-84
2022/10/03 10:32:00;;;;;;;4.15;1.70;;;;;;;;;;5034626;28;20122;-84
2022/10/03 10:34:48;;;;;;;5.75;3.17;;;;;;;;;;5017865;28;20036;-83
2022/10/03 10:37:25;;;;;;;4.93;2.10;;;;;;;;;;5034411;28;20040;-84
2022/10/03 10:40:11;;;;;;;4.10;2.00;;;;;;;;;;5017413;28;20029;-84
2022/10/03 10:43:14;;;;;;;3.63;1.48;;;;;;;;;;5032081;28;20449;-84
2022/10/03 10:45:45;;;;;;;3.72;1.77;;;;;;;;;;5014341;28;20025;-83
2022/10/03 10:48:45;;;;;;;3.55;1.30;;;;;;;;;;5030159;28;20464;-84
2022/10/03 10:51:39;;;;;;;4.72;1.90;;;;;;;;;;5030746;28;20029;-84
2022/10/03 10:54:11;;;;;;;4.80;1.65;;;;;;;;;;4983814;28;20031;-84
2022/10/03 10:56:55;;;;;;;3.53;1.30;;;;;;;;;;5016856;28;20115;-83
2022/10/03 11:00:07;;;;;;;3.60;1.65;;;;;;;;;;5017265;28;20037;-84
2022/10/03 11:02:45;;;;;;;2.95;1.60;;;;;;;;;;5014716;28;20041;-84
2022/10/03 11:05:47;;;;;;;3.05;1.50;;;;;;;;;;5017184;28;20091;-83
2022/10/03 11:08:35;;;;;;;2.58;1.50;;;;;;;;;;5033837;28;20029;-84
2022/10/03 11:11:25;;;;;;;6.43;2.00;;;;;;;;;;5033675;28;20483;-84
2022/10/03 11:14:05;;;;;;;2.90;1.30;;;;;;;;;;5016973;28;20074;-84
2022/10/03 11:16:59;;;;;;;3.50;1.33;;;;;;;;;;5033294;28;20043;-84
2022/10/03 11:19:43;;;;;;;3.38;1.42;;;;;;;;;;5016875;28;20033;-84
2022/10/03 11:22:24;;;;;;;3.97;1.35;;;;;;;;;;5017196;28;20021;-85
2022/10/03 11:25:26;;;;;;;2.80;1.42;;;;;;;;;;5033173;28;20052;-84
2022/10/03 11:28:01;;;;;;;4.38;2.13;;;;;;;;;;5016981;28;20428;-84
2022/10/03 11:31:09;;;;;;;4.97;1.70;;;;;;;;;;5016649;28;20055;-84
2022/10/03 11:33:59;;;;;;;3.63;1.75;;;;;;;;;;4995422;28;20060;-84
2022/10/03 11:36:37;;;;;;;2.88;1.38;;;;;;;;;;5036131;28;20422;-84
2022/10/03 11:39:14;;;;;;;3.25;1.77;;;;;;;;;;5016846;28;20033;-84
2022/10/03 11:41:46;;;;;;;2.90;1.25;;;;;;;;;;4985355;28;20502;-84
2022/10/03 11:44:32;;;;;;;2.45;1.25;;;;;;;;;;4966328;28;20041;-84
2022/10/03 11:47:10;;;;;;;2.63;1.05;;;;;;;;;;4995327;28;20117;-84
2022/10/03 11:49:48;;;;;;;2.33;1.48;;;;;;;;;;4993976;28;20030;-84
2022/10/03 11:52:27;;;;;;;2.85;1.40;;;;;;;;;;4978013;28;20073;-84
2022/10/03 11:55:15;;;;;;;3.22;1.63;;;;;;;;;;4985696;28;20029;-84
2022/10/03 11:57:41;;;;;;;2.13;1.40;;;;;;;;;;5001965;28;20029;-83
2022/10/03 12:00:09;;;;;;;3.15;1.38;;;;;;;;;;5000392;28;20483;-84
2022/10/03 12:02:53;;;;;;;2.95;1.45;;;;;;;;;;5033197;28;20044;-84
2022/10/03 12:05:48;;;;;;;2.80;1.10;;;;;;;;;;5016395;28;20119;-84
2022/10/03 12:11:15;;;;;;;3.13;1.40;;;;;;;;;;5035394;28;20490;-83
2022/10/03 12:14:05;;;;;;;3.47;1.27;;;;;;;;;;4985019;28;20433;-83
2022/10/03 12:16:56;;;;;;;2.60;1.30;;;;;;;;;;5021655;28;20486;-83
2022/10/03 12:19:45;;;;;;;4.13;1.58;;;;;;;;;;5021388;28;20041;-83
2022/10/03 12:22:47;;;;;;;2.90;1.42;;;;;;;;;;4997927;28;20044;-83
2022/10/03 12:25:44;;;;;;;3.80;1.40;;;;;;;;;;5054004;28;20483;-83
2022/10/03 12:28:24;;;;;;;2.72;1.42;;;;;;;;;;4993178;28;20044;-83
2022/10/03 12:31:12;;;;;;;2.40;1.45;;;;;;;;;;5003713;28;20047;-83
2022/10/03 12:34:08;;;;;;;2.22;0.98;;;;;;;;;;5022549;28;20025;-84
2022/10/03 12:36:59;;;;;;;2.75;1.23;;;;;;;;;;5053936;28;20094;-82
2022/10/03 12:39:46;;;;;;;2.55;1.15;;;;;;;;;;5035857;28;20036;-82
2022/10/03 12:42:25;;;;;;;4.20;1.25;;;;;;;;;;5004532;28;20029;-82
2022/10/03 12:44:54;;;;;;;4.72;1.50;;;;;;;;;;4996544;28;20499;-83
2022/10/03 12:47:25;;;;;;;3.53;1.15;;;;;;;;;;4982122;28;20539;-83
2022/10/03 12:50:26;;;;;;;2.33;1.08;;;;;;;;;;5016605;28;20033;-83
2022/10/03 12:53:07;;;;;;;2.17;1.15;;;;;;;;;;5000135;28;20061;-83
2022/10/03 12:55:35;;;;;;;4.88;1.85;;;;;;;;;;5027524;28;20041;-82
2022/10/03 12:58:34;;;;;;;1.90;1.20;;;;;;;;;;5003743;28;20025;-82
2022/10/03 13:01:19;;;;;;;2.38;1.10;;;;;;;;;;5019083;28;20079;-83
2022/10/03 13:03:58;;;;;;;2.35;0.98;;;;;;;;;;4987693;28;20396;-83
2022/10/03 13:06:37;;;;;;;3.03;1.50;;;;;;;;;;4987268;28;20033;-83
2022/10/03 13:09:21;;;;;;;2.63;1.20;;;;;;;;;;5020450;28;20670;-83
2022/10/03 13:12:15;;;;;;;4.35;1.58;;;;;;;;;;5003101;28;20029;-82
2022/10/03 13:15:18;;;;;;;1.98;1.05;;;;;;;;;;4989099;28;20071;-83
2022/10/03 13:17:49;;;;;;;;;;;;;;;;;;5036075;28;20025;-82
2022/10/03 13:20:34;;;;;;;3.08;1.13;;;;;;;;;;5018715;28;20263;-82
2022/10/03 13:23:17;;;;;;;4.30;1.48;;;;;;;;;;5002359;28;20037;-82
2022/10/03 13:25:53;;;;;;;2.58;0.90;;;;;;;;;;5003656;28;20053;-82
2022/10/03 13:28:30;;;;;;;3.83;1.23;;;;;;;;;;4986272;28;20082;-82
2022/10/03 13:31:02;;;;;;;2.92;1.33;;;;;;;;;;5019176;28;20040;-82
2022/10/03 13:33:28;;;;;;;2.58;1.30;;;;;;;;;;5018888;28;20035;-83
2022/10/03 13:36:19;;;;;;;3.53;1.13;;;;;;;;;;5002473;28;20040;-83
2022/10/03 13:39:22;;;;;;;3.97;1.30;;;;;;;;;;5027185;28;20052;-83
2022/10/03 13:41:59;;;;;;;2.60;1.10;;;;;;;;;;5002595;28;20021;-83
2022/10/03 13:44:57;;;;;;;1.35;0.50;;;;;;;;;;4998944;28;20036;-84
2022/10/03 13:47:45;;;;;;;3.45;1.50;;;;;;;;;;4981024;28;20065;-83
2022/10/03 13:50:41;;;;;;;2.58;0.95;;;;;;;;;;4999002;28;20091;-83
2022/10/03 13:53:35;;;;;;;2.03;1.05;;;;;;;;;;5011953;28;20037;-84
2022/10/03 13:56:20;;;;;;;3.50;1.75;;;;;;;;;;5029320;28;20044;-84
2022/10/03 13:58:57;;;;;;;4.28;1.30;;;;;;;;;;4988374;28;20057;-84
2022/10/03 14:02:04;;;;;;;7.60;1.98;;;;;;;;;;5002492;28;20125;-83
2022/10/03 14:04:51;;;;;;;5.40;1.42;;;;;;;;;;5026413;28;20036;-84
2022/10/03 14:07:21;;;;;;;3.80;1.25;;;;;;;;;;5019150;28;20279;-84
2022/10/03 14:10:15;;;;;;;4.28;0.90;;;;;;;;;;5018188;28;20530;-84
2022/10/03 14:13:01;;;;;;;4.50;1.45;;;;;;;;;;5001708;28;20033;-84
2022/10/03 14:15:39;;;;;;;3.17;1.48;;;;;;;;;;5016954;28;20033;-84
2022/10/03 14:18:23;;;;;;;3.47;0.93;;;;;;;;;;5017722;28;20083;-84
2022/10/03 14:21:11;;;;;;;3.53;0.85;;;;;;;;;;5051846;28;20025;-84
2022/10/03 14:23:41;;;;;;;4.10;1.25;;;;;;;;;;5016972;28;20036;-84
2022/10/03 14:26:39;;;;;;;6.47;1.58;;;;;;;;;;5002074;28;20116;-84
2022/10/03 14:29:22;;;;;;;3.97;1.42;;;;;;;;;;5011392;28;20047;-84
2022/10/03 14:31:50;;;;;;;3.20;1.20;;;;;;;;;;5001456;28;20112;-84
2022/10/03 14:34:38;;;;;;;3.35;1.05;;;;;;;;;;5017783;28;20037;-84
2022/10/03 14:37:30;;;;;;;3.67;1.23;;;;;;;;;;4987560;28;20407;-84
2022/10/03 14:40:16;;;;;;;3.65;1.05;;;;;;;;;;4985939;28;20032;-83
2022/10/03 14:43:00;;;;;;;3.03;1.15;;;;;;;;;;5015402;28;20029;-84
2022/10/03 14:45:28;;;;;;;3.13;1.25;;;;;;;;;;5014050;28;20431;-84
2022/10/03 14:48:17;;;;;;;2.83;1.40;;;;;;;;;;4979231;28;20068;-84
2022/10/03 14:50:44;;;;;;;4.95;1.65;;;;;;;;;;4992751;28;20053;-84
2022/10/03 14:53:14;;;;;;;6.22;1.38;;;;;;;;;;4997410;28;20112;-83
2022/10/03 14:56:04;;;;;;;10.35;2.33;;;;;;;;;;5009245;28;20067;-83
2022/10/03 14:58:52;;;;;;;11.02;2.47;;;;;;;;;;4985962;28;20017;-83
2022/10/03 15:01:29;;;;;;;8.18;2.28;;;;;;;;;;5018304;28;20055;-83
2022/10/03 15:04:14;;;;;;;7.65;1.80;;;;;;;;;;4986303;28;20024;-83
2022/10/03 15:06:45;;;;;;;7.55;1.40;;;;;;;;;;5000923;28;20036;-83
2022/10/03 15:09:15;;;;;;;7.50;1.23;;;;;;;;;;5033587;28;20033;-83
2022/10/03 15:11:59;;;;;;;8.63;2.22;;;;;;;;;;5018035;28;20484;-83
2022/10/03 15:14:26;;;;;;;5.82;1.63;;;;;;;;;;5001500;28;20096;-83
2022/10/03 15:16:55;;;;;;;10.35;2.17;;;;;;;;;;4984491;28;20491;-83
2022/10/03 15:19:28;;;;;;;7.57;1.70;;;;;;;;;;5016899;28;20025;-84
2022/10/03 15:21:53;;;;;;;6.72;2.15;;;;;;;;;;5018148;28;20033;-83
2022/10/03 15:24:26;;;;;;;7.00;1.88;;;;;;;;;;5000391;28;20029;-83
2022/10/03 15:26:55;;;;;;;5.55;1.67;;;;;;;;;;4984972;28;20033;-83
2022/10/03 15:29:20;;;;;;;7.90;1.77;;;;;;;;;;5017012;28;20104;-83
2022/10/03 15:31:47;;;;;;;4.45;1.35;;;;;;;;;;4984705;28;20037;-83
2022/10/03 15:34:19;;;;;;;7.93;1.80;;;;;;;;;;4998822;28;20049;-84
2022/10/03 15:36:47;;;;;;;7.55;2.10;;;;;;;;;;4981549;28;20037;-83
2022/10/03 15:39:27;;;;;;;3.97;1.58;;;;;;;;;;4981012;28;20112;-82
2022/10/03 15:42:09;;;;;;;9.68;2.22;;;;;;;;;;4998122;28;20044;-82
2022/10/03 15:44:40;;;;;;;4.55;1.42;;;;;;;;;;5009979;28;20026;-83
2022/10/03 15:47:09;;;;;;;9.45;2.42;;;;;;;;;;4962171;28;20061;-83
2022/10/03 15:49:58;;;;;;;6.13;1.65;;;;;;;;;;4981120;28;20037;-83
2022/10/03 15:52:43;;;;;;;6.03;1.77;;;;;;;;;;4985402;28;20040;-83
2022/10/03 15:55:23;;;;;;;7.10;2.67;;;;;;;;;;4994562;28;20036;-83
2022/10/03 15:57:50;;;;;;;5.68;1.27;;;;;;;;;;5022698;28;20044;-83
2022/10/03 16:00:26;;;;;;;7.00;2.10;;;;;;;;;;4956354;28;20029;-83
2022/10/03 16:03:29;;;;;;;11.27;2.55;;;;;;;;;;4965413;28;20041;-82
2022/10/03 16:06:01;;;;;;;8.30;1.88;;;;;;;;;;4995884;28;20034;-82
2022/10/03 16:08:28;;;;;;;6.50;2.23;;;;;;;;;;4997000;28;20041;-83
2022/10/03 16:11:05;;;;;;;5.30;1.77;;;;;;;;;;4997544;28;20048;-83
2022/10/03 16:13:47;;;;;;;7.75;2.00;;;;;;;;;;5003495;28;20760;-85
2022/10/03 16:16:19;;;;;;;9.95;2.33;;;;;;;;;;4984148;28;20037;-82
2022/10/03 16:18:47;;;;;;;11.20;2.38;;;;;;;;;;5000481;28;20029;-83
2022/10/03 16:21:18;;;;;;;11.02;2.65;;;;;;;;;;5000439;28;20045;-83
2022/10/03 16:23:44;;;;;;;9.88;2.55;;;;;;;;;;5000478;28;20064;-83
2022/10/03 16:26:23;;;;;;;11.48;3.60;;;;;;;;;;5017469;28;20064;-84
2022/10/03 16:28:51;;;;;;;13.20;3.33;;;;;;;;;;4996409;28;20073;-81
2022/10/03 16:31:33;;;;;;;18.25;3.70;;;;;;;;;;4996668;28;20057;-82
2022/10/03 16:34:02;;;;;;;15.90;4.05;;;;;;;;;;4997245;28;20025;-81
2022/10/03 16:36:27;;;;;;;16.17;3.75;;;;;;;;;;4984270;28;20044;-82
2022/10/03 16:38:55;;;;;;;16.92;4.47;;;;;;;;;;5016561;28;20033;-82